Terminal Aerodrome Forecast
Issued by NWS Sterling, VA

Current Version | Previous Version | Graphics & Text | Print | Product List | Glossary On
Versions: 1 2 3 4 5 6 7 8 9 10 11 12 13 14 15 16 17 18 19 20 21 22 23
546
FTUS41 KLWX 111120
TAFDCA
TAF
KDCA 111120Z 1112/1212 27009KT P6SM FEW050
     FM111400 29016G25KT P6SM FEW050 SCT150
     FM120100 30011KT P6SM FEW250
     FM121000 25005KT P6SM SCT200=

USA.gov is the U.S. government's official web portal to all federal, state and local government web resources and services.